createdAt,value
2022-11-12T00:01:34.436Z,2.79
2022-11-12T00:04:22.760Z,2.77
2022-11-12T00:07:11.132Z,2.73
2022-11-12T00:09:59.546Z,2.77
2022-11-12T00:12:48.087Z,2.76
2022-11-12T00:15:36.195Z,2.70
2022-11-12T00:18:24.794Z,2.80
2022-11-12T00:21:12.983Z,2.73
2022-11-12T00:24:01.457Z,2.77
2022-11-12T00:26:49.285Z,2.72
2022-11-12T00:29:37.116Z,2.68
2022-11-12T00:32:25.373Z,2.65
2022-11-12T00:35:19.158Z,2.63
2022-11-12T00:38:07.195Z,2.67
2022-11-12T00:40:55.045Z,2.65
2022-11-12T00:43:42.872Z,2.67
2022-11-12T00:46:30.605Z,2.63
2022-11-12T00:49:18.983Z,2.47
2022-11-12T00:55:39.000Z,2.46
2022-11-12T00:58:27.371Z,2.40
2022-11-12T01:01:17.011Z,2.57
2022-11-12T01:04:05.189Z,2.59
2022-11-12T01:06:53.417Z,2.71
2022-11-12T01:09:41.559Z,2.71
2022-11-12T01:12:29.474Z,2.66
2022-11-12T01:15:17.770Z,2.55
2022-11-12T01:18:05.572Z,2.64
2022-11-12T01:20:53.257Z,2.66
2022-11-12T01:23:42.799Z,2.66
2022-11-12T01:26:31.265Z,2.65
2022-11-12T01:29:19.194Z,2.62
2022-11-12T01:32:06.960Z,2.71
2022-11-12T01:38:37.135Z,2.75
2022-11-12T01:41:29.091Z,2.75
2022-11-12T01:44:34.928Z,2.72
2022-11-12T01:47:27.840Z,2.77
2022-11-12T01:50:19.096Z,2.75
2022-11-12T01:53:10.437Z,2.85
2022-11-12T01:55:59.112Z,2.78
2022-11-12T01:58:49.465Z,2.81
2022-11-12T02:01:39.444Z,2.83
2022-11-12T02:04:29.400Z,2.77
2022-11-12T02:07:18.171Z,2.69
2022-11-12T02:10:06.972Z,2.70
2022-11-12T02:13:08.741Z,2.75
2022-11-12T02:15:56.991Z,2.76
2022-11-12T02:18:45.252Z,2.77
2022-11-12T02:21:33.632Z,2.79
2022-11-12T02:24:21.884Z,2.82
2022-11-12T02:27:10.297Z,2.91
2022-11-12T02:29:58.188Z,2.84
2022-11-12T02:32:45.982Z,2.81
2022-11-12T02:35:34.131Z,2.84
2022-11-12T02:38:22.246Z,2.82
2022-11-12T02:41:10.744Z,2.81
2022-11-12T02:43:59.027Z,2.82
2022-11-12T02:46:46.927Z,2.50
2022-11-12T02:49:35.255Z,2.68
2022-11-12T02:52:23.889Z,2.79
2022-11-12T02:55:12.864Z,2.71
2022-11-12T02:58:01.691Z,2.74
2022-11-12T03:00:50.019Z,2.78
2022-11-12T03:03:38.137Z,2.81
2022-11-12T03:06:25.956Z,2.83
2022-11-12T03:09:14.711Z,2.77
2022-11-12T03:12:02.794Z,2.89
2022-11-12T03:14:50.601Z,2.87
2022-11-12T03:17:38.468Z,2.93
2022-11-12T03:20:26.240Z,2.81
2022-11-12T03:23:14.675Z,2.80
2022-11-12T03:26:05.443Z,2.86
2022-11-12T03:28:54.564Z,2.91
2022-11-12T03:31:42.495Z,2.84
2022-11-12T03:34:30.296Z,2.88
2022-11-12T03:37:18.241Z,2.91
2022-11-12T03:40:06.278Z,2.81
2022-11-12T03:42:54.855Z,2.78
2022-11-12T03:45:42.883Z,2.84
2022-11-12T03:48:30.936Z,2.80
2022-11-12T03:51:21.273Z,2.80
2022-11-12T03:54:09.784Z,2.77
2022-11-12T03:56:57.497Z,2.80
2022-11-12T03:59:45.265Z,2.79
2022-11-12T04:02:33.672Z,2.77
2022-11-12T04:05:33.960Z,2.76
2022-11-12T04:08:35.608Z,2.74
2022-11-12T04:11:23.328Z,2.75
2022-11-12T04:14:11.295Z,2.78
2022-11-12T04:17:11.620Z,2.82
2022-11-12T04:20:12.382Z,2.81
2022-11-12T04:23:00.389Z,2.89
2022-11-12T04:26:00.985Z,2.82
2022-11-12T04:29:01.655Z,2.81
2022-11-12T04:31:49.673Z,2.88
2022-11-12T04:34:37.892Z,2.88
2022-11-12T04:37:27.466Z,2.89
2022-11-12T04:40:28.902Z,2.82
2022-11-12T04:43:31.109Z,2.86
2022-11-12T04:46:18.916Z,2.85
2022-11-12T04:49:07.453Z,2.89
2022-11-12T04:52:07.795Z,2.91
2022-11-12T04:54:56.684Z,3.04
2022-11-12T04:57:45.071Z,3.14
2022-11-12T05:00:33.005Z,3.11
2022-11-12T05:03:21.290Z,3.05
2022-11-12T05:06:30.752Z,3.00
2022-11-12T05:09:18.625Z,2.95
2022-11-12T05:12:06.917Z,2.96
2022-11-12T05:14:55.058Z,2.92
2022-11-12T05:17:46.555Z,2.89
2022-11-12T05:20:34.453Z,2.78
2022-11-12T05:23:22.362Z,2.68
2022-11-12T05:26:10.023Z,2.75
2022-11-12T05:28:57.927Z,2.70
2022-11-12T05:31:46.395Z,2.65
2022-11-12T05:34:34.225Z,2.62
2022-11-12T05:37:22.115Z,2.60
2022-11-12T05:40:10.211Z,2.62
2022-11-12T05:42:58.296Z,2.66
2022-11-12T05:45:46.251Z,2.58
2022-11-12T05:48:34.392Z,2.55
2022-11-12T05:51:22.315Z,2.61
2022-11-12T05:54:10.180Z,2.54
2022-11-12T05:56:58.273Z,2.57
2022-11-12T05:59:45.939Z,2.57
2022-11-12T06:02:33.972Z,2.58
2022-11-12T06:05:22.457Z,2.54
2022-11-12T06:08:10.227Z,2.54
2022-11-12T06:10:58.595Z,2.54
2022-11-12T06:13:46.474Z,2.57
2022-11-12T06:16:34.464Z,2.60
2022-11-12T06:19:22.164Z,2.60
2022-11-12T06:22:09.899Z,2.64
2022-11-12T06:24:58.292Z,2.60
2022-11-12T06:27:46.601Z,2.65
2022-11-12T06:30:34.617Z,2.58
2022-11-12T06:33:22.391Z,2.55
2022-11-12T06:36:11.798Z,2.52
2022-11-12T06:38:59.774Z,2.57
2022-11-12T06:41:47.520Z,2.55
2022-11-12T06:44:35.945Z,2.57
2022-11-12T06:47:24.176Z,2.53
2022-11-12T06:50:12.276Z,2.58
2022-11-12T06:53:03.134Z,2.62
2022-11-12T06:55:51.152Z,2.61
2022-11-12T06:58:39.786Z,2.71
2022-11-12T07:01:27.902Z,2.83
2022-11-12T07:04:16.189Z,2.90
2022-11-12T07:07:09.347Z,2.90
2022-11-12T07:09:58.708Z,3.02
2022-11-12T07:12:51.988Z,3.06
2022-11-12T07:15:41.521Z,3.08
2022-11-12T07:18:30.048Z,3.11
2022-11-12T07:21:22.209Z,3.22
2022-11-12T07:24:10.391Z,3.22
2022-11-12T07:26:58.499Z,3.26
2022-11-12T07:29:48.502Z,3.38
2022-11-12T07:32:42.047Z,3.38
2022-11-12T07:35:32.107Z,3.47
2022-11-12T07:38:20.308Z,3.49
2022-11-12T07:41:16.404Z,3.52
2022-11-12T07:44:04.116Z,3.61
2022-11-12T07:46:51.801Z,3.66
2022-11-12T07:49:39.752Z,3.75
2022-11-12T07:52:28.148Z,3.80
2022-11-12T07:55:16.028Z,3.88
2022-11-12T07:58:04.056Z,3.98
2022-11-12T08:00:52.353Z,4.09
2022-11-12T08:03:40.288Z,4.18
2022-11-12T08:06:28.428Z,4.28
2022-11-12T08:09:16.596Z,4.39
2022-11-12T08:12:04.496Z,4.54
2022-11-12T08:14:52.311Z,4.63
2022-11-12T08:17:42.928Z,4.77
2022-11-12T08:20:31.024Z,4.85
2022-11-12T08:23:18.631Z,4.98
2022-11-12T08:26:07.815Z,5.07
2022-11-12T08:28:55.785Z,5.21
2022-11-12T08:31:43.733Z,5.34
2022-11-12T08:34:31.666Z,5.41
2022-11-12T08:37:19.511Z,5.48
2022-11-12T08:40:07.529Z,5.53
2022-11-12T08:43:01.789Z,5.63
2022-11-12T08:45:50.284Z,5.69
2022-11-12T08:48:40.131Z,5.77
2022-11-12T08:51:28.442Z,5.90
2022-11-12T08:54:16.167Z,5.98
2022-11-12T08:57:04.017Z,6.10
2022-11-12T08:59:53.292Z,6.18
2022-11-12T09:02:41.132Z,6.27
2022-11-12T09:05:29.166Z,6.33
2022-11-12T09:08:18.201Z,6.41
2022-11-12T09:11:06.709Z,6.48
2022-11-12T09:13:58.048Z,6.56
2022-11-12T09:16:46.528Z,6.66
2022-11-12T09:19:37.495Z,6.74
2022-11-12T09:22:28.114Z,6.87
2022-11-12T09:25:16.034Z,7.00
2022-11-12T09:28:17.754Z,7.10
